Time;durP1;ratioP1;P1;durP2;ratioP2;P2;SDS_P1;SDS_P2;PMS_P1;PMS_P2;Temp;Humidity;BMP_temperature;BMP_pressure;BME280_temperature;BME280_humidity;BME280_pressure;Samples;Min_cycle;Max_cycle;Signal;HPM_P1;HPM_P2
2024/04/26 00:00:11;;;;;;;4.28;1.63;;;;;;;18.91;43.53;98553.31;7408419;19;20007;-58
2024/04/26 00:02:44;;;;;;;0.57;0.57;;;;;;;18.96;43.50;98545.97;7404366;19;20018;-57
2024/04/26 00:05:10;;;;;;;0.90;0.90;;;;;;;18.50;43.75;98550.84;7402914;19;20544;-57
2024/04/26 00:07:36;;;;;;;0.50;0.50;;;;;;;18.16;44.45;98542.66;7403786;19;20611;-57
2024/04/26 00:10:02;;;;;;;0.68;0.65;;;;;;;17.95;44.87;98544.09;7395057;19;20074;-57
2024/04/26 00:12:28;;;;;;;0.75;0.52;;;;;;;17.99;44.90;98545.25;7401295;19;20015;-57
2024/04/26 00:14:54;;;;;;;0.75;0.57;;;;;;;18.20;44.24;98547.91;7396281;19;20007;-57
2024/04/26 00:17:20;;;;;;;0.30;0.30;;;;;;;17.96;44.54;98540.72;7396429;19;20010;-57
2024/04/26 00:19:46;;;;;;;0.47;0.47;;;;;;;17.85;45.00;98545.91;7396023;19;20015;-57
2024/04/26 00:22:12;;;;;;;0.63;0.63;;;;;;;18.10;44.36;98538.50;7395678;19;20011;-57
2024/04/26 00:24:41;;;;;;;0.30;0.30;;;;;;;18.17;44.16;98538.53;7395446;19;20010;-57
2024/04/26 00:27:08;;;;;;;0.22;0.22;;;;;;;18.41;43.83;98547.78;7395810;19;20040;-57
2024/04/26 00:29:34;;;;;;;0.60;0.60;;;;;;;18.40;44.10;98551.91;7396539;19;20030;-57
2024/04/26 00:32:01;;;;;;;0.60;0.60;;;;;;;18.42;43.77;98549.28;7394269;19;20010;-57
2024/04/26 00:34:27;;;;;;;0.68;0.68;;;;;;;18.11;44.27;98545.63;7395092;19;20023;-57
2024/04/26 00:36:53;;;;;;;0.55;0.55;;;;;;;18.46;43.82;98549.69;7393839;19;20034;-57
2024/04/26 00:39:19;;;;;;;0.50;0.50;;;;;;;18.54;43.54;98539.19;7396244;19;20010;-57
2024/04/26 00:41:45;;;;;;;0.77;0.77;;;;;;;18.60;43.74;98551.03;7396051;19;20025;-57
2024/04/26 00:44:13;;;;;;;0.43;0.43;;;;;;;18.64;43.35;98548.59;7394545;19;20010;-57
2024/04/26 00:46:43;;;;;;;0.50;0.50;;;;;;;18.31;43.98;98555.28;7394227;19;20013;-57
2024/04/26 00:49:10;;;;;;;0.57;0.52;;;;;;;18.23;44.05;98540.41;7395998;19;20066;-57
2024/04/26 00:51:37;;;;;;;0.65;0.65;;;;;;;18.26;44.04;98539.31;7395292;19;20041;-57
2024/04/26 00:54:04;;;;;;;0.60;0.60;;;;;;;18.24;43.83;98530.63;7395404;19;20250;-57
2024/04/26 00:56:32;;;;;;;0.80;0.80;;;;;;;18.06;44.18;98538.84;7396713;19;20019;-57
2024/04/26 00:58:58;;;;;;;0.73;0.73;;;;;;;17.86;44.68;98530.53;7399242;19;20015;-57
2024/04/26 01:01:25;;;;;;;2.30;1.52;;;;;;;17.86;44.66;98542.56;7393826;19;20011;-57
2024/04/26 01:03:52;;;;;;;1.38;1.27;;;;;;;18.12;44.02;98541.53;7394578;19;20019;-57
2024/04/26 01:06:18;;;;;;;0.35;0.30;;;;;;;17.78;43.96;98541.03;7394253;19;20087;-57
2024/04/26 01:08:44;;;;;;;0.40;0.40;;;;;;;17.82;44.16;98535.78;7397468;19;20035;-57
2024/04/26 01:11:12;;;;;;;1.38;1.20;;;;;;;17.69;44.08;98538.72;7394617;19;20014;-57
2024/04/26 01:13:38;;;;;;;0.43;0.43;;;;;;;17.60;44.17;98545.63;7394991;19;20018;-57
2024/04/26 01:16:05;;;;;;;1.42;1.05;;;;;;;17.62;44.09;98543.00;7393826;19;20040;-57
2024/04/26 01:18:31;;;;;;;0.57;0.57;;;;;;;17.59;44.58;98538.50;7396648;19;20099;-57
2024/04/26 01:20:57;;;;;;;0.50;0.50;;;;;;;17.62;44.07;98542.25;7391032;19;20018;-57
2024/04/26 01:23:23;;;;;;;0.65;0.65;;;;;;;17.62;43.98;98540.19;7394449;19;20018;-57
2024/04/26 01:25:57;;;;;;;0.70;0.70;;;;;;;17.54;44.06;98545.03;7394165;19;20141;-57
2024/04/26 01:28:23;;;;;;;0.68;0.68;;;;;;;17.42;44.30;98549.44;7394829;19;20384;-57
2024/04/26 01:30:49;;;;;;;0.82;0.82;;;;;;;17.40;44.60;98540.78;7393865;19;20083;-58
2024/04/26 01:33:16;;;;;;;0.70;0.70;;;;;;;17.35;44.63;98550.13;7393536;19;20007;-57
2024/04/26 01:35:42;;;;;;;0.45;0.45;;;;;;;17.38;44.22;98543.41;7392064;19;20011;-57
2024/04/26 01:38:09;;;;;;;0.90;0.90;;;;;;;17.39;44.31;98544.91;7393222;19;20074;-57
2024/04/26 01:40:35;;;;;;;0.40;0.40;;;;;;;17.32;44.59;98545.63;7392811;19;20026;-57
2024/04/26 01:43:01;;;;;;;0.50;0.50;;;;;;;17.66;44.21;98549.03;7393413;19;20033;-57
2024/04/26 01:45:27;;;;;;;0.88;0.88;;;;;;;17.48;44.32;98560.56;7393168;19;20391;-57
2024/04/26 01:47:54;;;;;;;0.40;0.40;;;;;;;17.23;44.94;98544.09;7396050;19;20093;-57
2024/04/26 01:50:20;;;;;;;2.30;0.70;;;;;;;17.16;45.15;98547.59;7396757;19;20435;-57
2024/04/26 01:52:48;;;;;;;2.58;1.10;;;;;;;17.14;44.97;98541.75;7393078;19;20022;-57
2024/04/26 01:55:15;;;;;;;0.50;0.47;;;;;;;17.19;44.71;98542.94;7395551;19;20490;-57
2024/04/26 01:57:45;;;;;;;0.70;0.70;;;;;;;17.10;44.92;98543.41;7392264;19;20103;-57
2024/04/26 02:00:11;;;;;;;0.30;0.30;;;;;;;17.17;45.09;98551.16;7392352;19;20015;-57
2024/04/26 02:02:38;;;;;;;2.15;1.30;;;;;;;17.21;44.45;98551.56;7397256;19;20033;-57
2024/04/26 02:05:05;;;;;;;0.43;0.43;;;;;;;17.28;44.66;98550.88;7392760;19;20479;-57
2024/04/26 02:07:31;;;;;;;0.68;0.68;;;;;;;17.44;44.01;98552.44;7391702;19;20339;-57
2024/04/26 02:09:57;;;;;;;1.98;0.63;;;;;;;17.37;44.13;98555.97;7392349;19;20014;-57
2024/04/26 02:12:25;;;;;;;0.40;0.40;;;;;;;17.46;43.63;98552.66;7391865;19;20491;-57
2024/04/26 02:14:51;;;;;;;0.88;0.88;;;;;;;17.50;43.91;98550.25;7395847;19;20006;-57
2024/04/26 02:17:17;;;;;;;0.98;0.98;;;;;;;17.68;43.73;98554.88;7391814;19;20010;-57
2024/04/26 02:19:43;;;;;;;0.60;0.60;;;;;;;17.77;43.79;98553.59;7392472;19;20018;-57
2024/04/26 02:22:10;;;;;;;0.30;0.30;;;;;;;17.60;44.12;98544.88;7392426;19;20019;-57
2024/04/26 02:24:36;;;;;;;0.85;0.68;;;;;;;17.94;43.84;98551.78;7390714;19;20022;-57
2024/04/26 02:27:02;;;;;;;0.43;0.43;;;;;;;18.04;43.56;98546.38;7391974;19;20011;-57
2024/04/26 02:29:28;;;;;;;0.52;0.52;;;;;;;18.15;42.92;98543.22;7392549;19;20017;-57
2024/04/26 02:31:54;;;;;;;1.40;0.52;;;;;;;18.27;42.77;98552.84;7390523;19;20095;-57
2024/04/26 02:34:20;;;;;;;0.82;0.82;;;;;;;18.29;43.09;98538.19;7391707;19;20044;-57
2024/04/26 02:36:46;;;;;;;0.43;0.43;;;;;;;18.32;42.82;98545.53;7394559;19;20531;-57
2024/04/26 02:39:12;;;;;;;0.52;0.52;;;;;;;18.02;42.83;98543.34;7391160;19;20063;-58
2024/04/26 02:41:39;;;;;;;0.80;0.50;;;;;;;17.45;43.63;98549.06;7392241;19;20006;-57
2024/04/26 02:44:05;;;;;;;0.65;0.65;;;;;;;17.38;43.76;98541.38;7392393;19;20010;-57
2024/04/26 02:46:34;;;;;;;0.82;0.77;;;;;;;17.31;43.77;98541.31;7391450;19;20022;-57
2024/04/26 02:49:02;;;;;;;1.10;0.90;;;;;;;17.13;43.99;98545.88;7395463;19;20038;-57
2024/04/26 02:51:29;;;;;;;2.13;0.73;;;;;;;17.13;43.83;98539.50;7390783;19;20404;-57
2024/04/26 02:53:55;;;;;;;0.40;0.40;;;;;;;17.15;43.83;98537.63;7390594;19;20372;-57
2024/04/26 02:56:22;;;;;;;2.70;0.77;;;;;;;17.04;43.33;98542.81;7393300;19;20126;-57
2024/04/26 02:58:48;;;;;;;0.88;0.85;;;;;;;16.91;43.57;98545.72;7390196;19;20344;-57
2024/04/26 03:01:14;;;;;;;0.47;0.47;;;;;;;16.97;43.46;98546.31;7389228;19;20467;-57
2024/04/26 03:03:43;;;;;;;0.35;0.35;;;;;;;16.95;43.17;98546.13;7390656;19;20007;-58
2024/04/26 03:06:10;;;;;;;0.47;0.47;;;;;;;16.78;43.30;98548.63;7389780;19;20007;-57
2024/04/26 03:08:37;;;;;;;0.43;0.43;;;;;;;16.60;43.55;98551.09;7389755;19;20471;-58
2024/04/26 03:11:04;;;;;;;0.40;0.40;;;;;;;16.59;43.46;98549.56;7389196;19;20490;-57
2024/04/26 03:13:30;;;;;;;0.90;0.90;;;;;;;16.51;43.67;98548.75;7390411;19;20338;-58
2024/04/26 03:15:56;;;;;;;0.70;0.70;;;;;;;16.45;43.65;98550.91;7388348;19;20015;-57
2024/04/26 03:18:22;;;;;;;0.80;0.80;;;;;;;16.37;43.40;98555.69;7393419;19;20017;-57
2024/04/26 03:20:51;;;;;;;0.43;0.40;;;;;;;16.25;43.29;98557.25;7390751;19;20026;-57
2024/04/26 03:23:18;;;;;;;2.03;0.40;;;;;;;16.17;42.75;98553.63;7394764;19;20003;-57
2024/04/26 03:25:44;;;;;;;0.47;0.47;;;;;;;16.08;42.99;98556.91;7390528;19;20017;-57
2024/04/26 03:28:10;;;;;;;28.25;1.02;;;;;;;16.03;42.90;98557.00;7389680;19;20014;-57
2024/04/26 03:30:36;;;;;;;0.30;0.30;;;;;;;15.98;42.89;98555.09;7390821;19;20018;-57
2024/04/26 03:33:03;;;;;;;0.75;0.75;;;;;;;15.90;43.44;98546.56;7393699;19;20558;-57
2024/04/26 03:35:29;;;;;;;1.05;0.60;;;;;;;15.89;43.41;98559.09;7390421;19;20035;-57
2024/04/26 03:37:55;;;;;;;0.47;0.47;;;;;;;15.81;43.48;98555.44;7390498;19;20015;-57
2024/04/26 03:40:21;;;;;;;0.38;0.38;;;;;;;15.76;43.06;98556.31;7390677;19;20021;-57
2024/04/26 03:42:47;;;;;;;0.30;0.30;;;;;;;15.70;43.47;98561.31;7393118;19;20007;-57
2024/04/26 03:45:13;;;;;;;0.40;0.40;;;;;;;15.61;43.14;98558.94;7395696;19;20336;-57
2024/04/26 03:47:39;;;;;;;0.63;0.63;;;;;;;15.58;43.51;98560.00;7397982;19;20024;-57
2024/04/26 03:50:06;;;;;;;1.55;0.85;;;;;;;15.50;43.35;98559.91;7396000;19;20404;-57
2024/04/26 03:52:32;;;;;;;0.50;0.50;;;;;;;15.49;43.20;98557.63;7396700;19;20475;-57
2024/04/26 03:54:58;;;;;;;0.80;0.80;;;;;;;15.52;43.05;98557.31;7399496;19;20544;-57
2024/04/26 03:57:24;;;;;;;0.98;0.70;;;;;;;15.75;43.09;98552.00;7393762;19;20373;-57
2024/04/26 03:59:51;;;;;;;0.47;0.47;;;;;;;15.60;42.82;98569.41;7396782;19;20010;-57
2024/04/26 04:02:17;;;;;;;0.63;0.63;;;;;;;15.67;42.47;98573.59;7396030;19;20332;-57
2024/04/26 04:04:43;;;;;;;0.30;0.30;;;;;;;15.72;42.70;98567.13;7396001;19;20380;-57
2024/04/26 04:07:09;;;;;;;0.38;0.38;;;;;;;15.69;42.74;98571.78;7399398;19;20015;-57
2024/04/26 04:09:35;;;;;;;0.50;0.50;;;;;;;15.63;42.79;98573.19;7396166;19;20018;-57
2024/04/26 04:12:01;;;;;;;0.32;0.32;;;;;;;15.66;42.26;98577.69;7394517;19;20486;-57
2024/04/26 04:14:27;;;;;;;0.65;0.65;;;;;;;15.51;42.86;98572.63;7396207;19;20021;-57
2024/04/26 04:16:53;;;;;;;0.40;0.40;;;;;;;15.52;42.44;98574.16;7392708;19;20007;-57
2024/04/26 04:19:19;;;;;;;0.45;0.45;;;;;;;15.49;42.60;98568.84;7393842;19;20031;-57
2024/04/26 04:21:45;;;;;;;2.85;0.50;;;;;;;15.51;42.52;98572.63;7396880;19;20011;-57
2024/04/26 04:24:12;;;;;;;0.90;0.90;;;;;;;15.43;42.71;98571.00;7396224;19;20122;-57
2024/04/26 04:26:38;;;;;;;0.47;0.47;;;;;;;15.43;42.67;98577.41;7395761;19;20482;-57
2024/04/26 04:29:04;;;;;;;0.35;0.35;;;;;;;15.42;42.68;98575.13;7396684;19;19998;-57
2024/04/26 04:31:30;;;;;;;0.40;0.40;;;;;;;15.37;42.38;98568.31;7396001;19;20125;-57
2024/04/26 04:33:56;;;;;;;0.63;0.63;;;;;;;15.34;42.36;98577.03;7395211;19;20066;-57
2024/04/26 04:36:22;;;;;;;0.90;0.90;;;;;;;15.31;42.42;98572.53;7395089;19;20377;-57
2024/04/26 04:38:48;;;;;;;1.20;0.98;;;;;;;15.28;42.95;98577.16;7394779;19;20023;-57
2024/04/26 04:41:14;;;;;;;0.28;0.28;;;;;;;15.33;42.55;98575.53;7398009;19;20339;-57
2024/04/26 04:43:40;;;;;;;0.50;0.50;;;;;;;15.36;42.73;98582.84;7392198;19;20036;-57
2024/04/26 04:46:06;;;;;;;0.20;0.20;;;;;;;15.16;42.66;98587.06;7391397;19;20034;-57
2024/04/26 04:48:32;;;;;;;0.50;0.50;;;;;;;15.36;42.62;98589.22;7397711;19;20018;-57
2024/04/26 04:50:58;;;;;;;0.68;0.60;;;;;;;15.38;42.60;98591.50;7395281;19;20030;-57
2024/04/26 04:53:25;;;;;;;0.63;0.63;;;;;;;15.32;42.46;98591.59;7395842;19;20014;-57
2024/04/26 04:55:51;;;;;;;2.05;1.45;;;;;;;15.29;42.83;98595.47;7396002;19;20502;-57
2024/04/26 04:58:17;;;;;;;0.20;0.20;;;;;;;15.02;43.15;98599.56;7395639;19;20046;-57
2024/04/26 05:00:43;;;;;;;1.08;0.70;;;;;;;14.72;43.17;98594.22;7394407;19;20010;-57
2024/04/26 05:03:11;;;;;;;0.75;0.75;;;;;;;14.83;43.19;98593.25;7398124;19;20010;-57
2024/04/26 05:05:37;;;;;;;0.80;0.50;;;;;;;14.91;42.89;98599.75;7394161;19;20017;-56
2024/04/26 05:08:05;;;;;;;0.60;0.60;;;;;;;14.83;42.87;98604.47;7395329;19;20014;-57
2024/04/26 05:10:31;;;;;;;1.38;0.93;;;;;;;14.78;43.36;98600.47;7394978;19;20336;-56
2024/04/26 05:12:57;;;;;;;0.35;0.35;;;;;;;14.90;43.16;98603.84;7394381;19;20022;-57
2024/04/26 05:15:23;;;;;;;0.70;0.70;;;;;;;14.99;43.27;98606.97;7397348;19;20045;-57
2024/04/26 05:17:50;;;;;;;0.80;0.80;;;;;;;15.03;43.31;98601.81;7394293;19;20034;-56
2024/04/26 05:20:16;;;;;;;2.22;1.45;;;;;;;15.11;43.34;98607.56;7392548;19;20014;-56
2024/04/26 05:22:42;;;;;;;1.13;1.00;;;;;;;15.09;43.33;98607.34;7394030;19;20033;-56
2024/04/26 05:25:09;;;;;;;1.75;1.17;;;;;;;15.14;43.40;98607.22;7397676;19;20010;-57
2024/04/26 05:27:35;;;;;;;2.60;1.25;;;;;;;15.32;43.14;98604.88;7394115;19;20070;-57
2024/04/26 05:30:01;;;;;;;0.40;0.40;;;;;;;15.45;43.24;98602.09;7392629;19;20126;-57
2024/04/26 05:32:27;;;;;;;0.93;0.93;;;;;;;15.70;43.06;98611.81;7393642;19;20014;-57
2024/04/26 05:34:53;;;;;;;11.80;2.63;;;;;;;15.67;43.11;98613.66;7392454;19;20011;-57
2024/04/26 05:37:19;;;;;;;0.95;0.95;;;;;;;15.68;43.22;98614.41;7395663;19;20077;-57
2024/04/26 05:39:45;;;;;;;3.05;2.58;;;;;;;15.75;43.22;98613.75;7394099;19;20463;-57
2024/04/26 05:42:11;;;;;;;3.47;3.17;;;;;;;15.75;43.13;98613.75;7393851;19;20036;-56
2024/04/26 05:44:37;;;;;;;7.75;3.22;;;;;;;15.75;43.39;98620.13;7393447;19;20337;-57
2024/04/26 05:47:03;;;;;;;3.47;2.65;;;;;;;15.77;43.51;98622.38;7393773;19;20011;-57
2024/04/26 05:49:29;;;;;;;4.50;2.05;;;;;;;15.78;43.66;98627.47;7396960;19;20021;-57
2024/04/26 05:51:55;;;;;;;8.90;2.53;;;;;;;15.86;43.86;98625.53;7393267;19;20475;-56
2024/04/26 05:54:21;;;;;;;18.33;3.70;;;;;;;16.21;43.25;98629.13;7391306;19;20556;-57
2024/04/26 05:56:48;;;;;;;7.40;3.00;;;;;;;15.99;43.76;98640.81;7391001;19;20015;-56
2024/04/26 05:59:14;;;;;;;11.27;3.83;;;;;;;16.03;43.54;98633.59;7392964;19;20365;-57
2024/04/26 06:01:40;;;;;;;11.77;2.92;;;;;;;16.07;43.80;98634.00;7396802;19;20014;-57
2024/04/26 06:04:06;;;;;;;3.35;1.67;;;;;;;16.18;44.15;98639.38;7392840;19;20752;-57
2024/04/26 06:06:34;;;;;;;4.20;2.42;;;;;;;16.42;43.74;98644.75;7391679;19;20018;-56
2024/04/26 06:09:00;;;;;;;26.13;4.22;;;;;;;16.52;44.01;98640.19;7392526;19;20006;-57
2024/04/26 06:11:26;;;;;;;2.83;1.30;;;;;;;16.60;44.37;98641.03;7391433;19;20118;-57
2024/04/26 06:13:52;;;;;;;7.63;1.60;;;;;;;16.71;44.30;98642.84;7395653;19;20015;-57
2024/04/26 06:16:18;;;;;;;0.80;0.80;;;;;;;16.73;44.25;98653.53;7392898;19;20038;-57
2024/04/26 06:18:44;;;;;;;1.20;0.82;;;;;;;16.77;44.08;98648.31;7396585;19;20064;-56
2024/04/26 06:21:10;;;;;;;1.50;1.40;;;;;;;16.79;44.64;98648.53;7391860;19;20023;-57
2024/04/26 06:23:36;;;;;;;0.88;0.88;;;;;;;16.86;44.68;98656.28;7391770;19;20014;-56
2024/04/26 06:26:03;;;;;;;1.88;1.65;;;;;;;16.85;44.54;98654.78;7396612;19;20011;-56
2024/04/26 06:28:29;;;;;;;2.75;0.68;;;;;;;16.94;44.79;98651.47;7391834;19;20754;-57
2024/04/26 06:30:55;;;;;;;4.75;2.25;;;;;;;17.10;44.69;98658.75;7391162;19;20346;-57
2024/04/26 06:33:21;;;;;;;4.45;2.22;;;;;;;17.12;44.76;98658.97;7392432;19;20071;-57
2024/04/26 06:35:47;;;;;;;0.73;0.73;;;;;;;17.14;44.93;98659.94;7390949;19;20034;-57
2024/04/26 06:38:14;;;;;;;1.20;1.10;;;;;;;17.19;44.93;98659.03;7395445;19;20014;-57
2024/04/26 06:40:41;;;;;;;0.88;0.88;;;;;;;17.18;45.09;98665.19;7391206;19;20444;-56
2024/04/26 06:43:07;;;;;;;1.23;1.00;;;;;;;17.19;45.15;98664.66;7390086;19;20018;-57
2024/04/26 06:45:33;;;;;;;2.47;2.03;;;;;;;17.13;45.40;98663.28;7394450;19;20040;-57
2024/04/26 06:47:59;;;;;;;2.28;2.08;;;;;;;17.25;45.56;98670.16;7393334;19;20074;-57
2024/04/26 06:50:25;;;;;;;2.97;1.25;;;;;;;17.34;45.45;98669.66;7394898;19;20010;-57
2024/04/26 06:52:51;;;;;;;7.00;1.73;;;;;;;17.45;45.39;98669.38;7391910;19;20018;-57
2024/04/26 06:55:17;;;;;;;5.10;1.48;;;;;;;17.61;45.61;98673.81;7393823;19;20021;-57
2024/04/26 06:57:43;;;;;;;1.05;0.93;;;;;;;17.72;46.01;98673.53;7389518;19;20073;-57
2024/04/26 07:00:10;;;;;;;0.77;0.77;;;;;;;17.95;45.73;98671.59;7391608;19;20047;-57
2024/04/26 07:02:36;;;;;;;4.93;2.08;;;;;;;17.87;45.70;98673.63;7395593;19;20037;-57
2024/04/26 07:05:02;;;;;;;3.47;1.52;;;;;;;17.96;46.05;98681.56;7391201;19;20003;-57
2024/04/26 07:07:28;;;;;;;14.10;2.25;;;;;;;18.04;45.88;98682.34;7389215;19;20026;-57
2024/04/26 07:09:54;;;;;;;1.33;0.73;;;;;;;18.14;45.68;98674.91;7389349;19;20018;-57
2024/04/26 07:12:20;;;;;;;1.00;0.68;;;;;;;18.31;46.01;98679.28;7394588;19;20022;-57
2024/04/26 07:14:47;;;;;;;2.00;1.45;;;;;;;18.42;45.76;98676.91;7390376;19;20388;-58
2024/04/26 07:17:14;;;;;;;0.75;0.57;;;;;;;18.52;46.15;98674.31;7390891;19;20029;-58
2024/04/26 07:19:41;;;;;;;0.70;0.70;;;;;;;18.56;46.12;98677.56;7398364;19;20044;-58
2024/04/26 07:22:07;;;;;;;1.13;1.13;;;;;;;18.51;45.71;98672.84;7400724;19;20166;-58
2024/04/26 07:24:33;;;;;;;0.60;0.57;;;;;;;18.58;46.20;98686.22;7398224;19;20006;-58
2024/04/26 07:26:59;;;;;;;0.90;0.90;;;;;;;19.25;45.82;98676.38;7397261;19;20074;-58
2024/04/26 07:29:25;;;;;;;0.93;0.63;;;;;;;19.19;46.34;98684.28;7398288;19;20486;-58
2024/04/26 07:31:51;;;;;;;0.98;0.98;;;;;;;19.34;46.09;98682.22;7396993;19;20021;-58
2024/04/26 07:34:18;;;;;;;4.45;1.08;;;;;;;19.61;45.90;98674.88;7401655;19;20070;-57
2024/04/26 07:36:45;;;;;;;3.30;2.30;;;;;;;19.25;46.48;98691.22;7396475;19;20040;-57
2024/04/26 07:39:15;;;;;;;3.20;1.45;;;;;;;19.84;45.40;98680.47;7397848;19;20029;-58
2024/04/26 07:41:41;;;;;;;0.68;0.68;;;;;;;19.70;45.60;98681.28;7400815;19;20033;-58
2024/04/26 07:44:07;;;;;;;0.60;0.60;;;;;;;19.55;46.00;98677.16;7397685;19;20317;-58
2024/04/26 07:46:33;;;;;;;0.77;0.77;;;;;;;19.90;45.89;98671.81;7396295;19;20035;-57
2024/04/26 07:48:59;;;;;;;1.40;1.00;;;;;;;19.94;45.46;98672.19;7400920;19;20010;-57
2024/04/26 07:51:25;;;;;;;0.98;0.98;;;;;;;20.24;45.08;98683.44;7397719;19;20018;-57
2024/04/26 07:53:51;;;;;;;1.75;0.82;;;;;;;20.50;45.06;98682.97;7396422;19;20073;-57
2024/04/26 07:56:18;;;;;;;2.33;0.70;;;;;;;20.27;44.74;98688.69;7400515;19;20027;-58
2024/04/26 07:58:44;;;;;;;1.88;1.30;;;;;;;20.54;44.06;98682.56;7397689;19;20011;-57
2024/04/26 08:01:13;;;;;;;0.32;0.32;;;;;;;20.85;43.56;98681.84;7395321;19;20035;-58
2024/04/26 08:03:39;;;;;;;1.98;1.73;;;;;;;21.04;42.89;98690.63;7395929;19;20031;-58
2024/04/26 08:06:05;;;;;;;1.48;1.05;;;;;;;21.14;43.09;98683.00;7399395;19;20011;-58
2024/04/26 08:08:31;;;;;;;0.28;0.28;;;;;;;21.16;42.55;98676.75;7395303;19;20015;-58
2024/04/26 08:10:57;;;;;;;0.82;0.70;;;;;;;21.27;42.78;98678.38;7397156;19;20048;-57
2024/04/26 08:13:23;;;;;;;0.40;0.40;;;;;;;21.21;43.08;98686.34;7396201;19;20056;-58
2024/04/26 08:15:51;;;;;;;0.68;0.68;;;;;;;21.35;42.49;98679.06;7396684;19;20014;-58
2024/04/26 08:18:17;;;;;;;0.85;0.85;;;;;;;21.45;42.41;98688.41;7399097;19;20119;-58
2024/04/26 08:20:43;;;;;;;12.73;1.30;;;;;;;21.43;42.30;98691.09;7395361;19;20022;-58
2024/04/26 08:23:09;;;;;;;0.70;0.70;;;;;;;21.60;41.81;98688.28;7396289;19;20090;-57
2024/04/26 08:25:35;;;;;;;0.55;0.55;;;;;;;21.51;41.97;98686.84;7393066;19;20055;-58
2024/04/26 08:28:02;;;;;;;0.40;0.40;;;;;;;21.70;41.32;98692.00;7398215;19;20018;-57
2024/04/26 08:30:30;;;;;;;2.22;0.90;;;;;;;21.88;40.80;98691.47;7395243;19;20014;-58
2024/04/26 08:32:56;;;;;;;0.68;0.68;;;;;;;22.15;41.00;98691.56;7395098;19;20022;-58
2024/04/26 08:35:22;;;;;;;0.45;0.45;;;;;;;22.64;40.71;98690.63;7396240;19;20007;-58
2024/04/26 08:37:48;;;;;;;0.90;0.90;;;;;;;22.80;40.30;98688.34;7393530;19;20327;-58
2024/04/26 08:40:14;;;;;;;2.75;1.33;;;;;;;23.09;39.53;98684.31;7397532;19;20320;-58
2024/04/26 08:42:40;;;;;;;0.35;0.35;;;;;;;22.99;39.14;98679.94;7395981;19;20011;-58
2024/04/26 08:45:08;;;;;;;0.73;0.73;;;;;;;22.65;39.50;98682.88;7394593;19;20034;-59
2024/04/26 08:47:35;;;;;;;0.50;0.50;;;;;;;23.44;38.84;98682.09;7397266;19;20467;-58
2024/04/26 08:50:03;;;;;;;0.82;0.50;;;;;;;23.29;37.75;98685.91;7394759;19;20010;-59
2024/04/26 08:52:33;;;;;;;0.45;0.45;;;;;;;23.03;38.01;98683.84;7397439;19;20014;-58
2024/04/26 08:55:02;;;;;;;2.47;0.40;;;;;;;23.17;38.38;98690.63;7396905;19;20010;-58
2024/04/26 08:57:31;;;;;;;0.40;0.28;;;;;;;23.38;37.80;98692.25;7393217;19;20516;-59
2024/04/26 09:00:03;;;;;;;0.50;0.47;;;;;;;23.31;37.89;98676.78;7394945;19;20523;-59
2024/04/26 09:02:30;;;;;;;0.20;0.20;;;;;;;22.94;37.66;98684.53;7393504;19;20015;-58
2024/04/26 09:04:57;;;;;;;1.85;0.82;;;;;;;23.42;36.84;98687.63;7396789;19;20039;-58
2024/04/26 09:07:23;;;;;;;0.52;0.40;;;;;;;23.67;36.99;98687.41;7394534;19;20021;-58
2024/04/26 09:09:50;;;;;;;0.55;0.43;;;;;;;23.94;36.69;98683.13;7395202;19;20015;-58
2024/04/26 09:12:16;;;;;;;0.43;0.43;;;;;;;23.68;35.99;98689.66;7394925;19;20025;-58
2024/04/26 09:14:42;;;;;;;0.20;0.20;;;;;;;23.57;36.14;98693.06;7394345;19;20021;-58
2024/04/26 09:17:11;;;;;;;0.75;0.60;;;;;;;23.48;35.86;98688.09;7395821;19;20010;-58
2024/04/26 09:19:38;;;;;;;0.30;0.30;;;;;;;23.51;36.09;98695.44;7393196;19;20011;-58
2024/04/26 09:22:08;;;;;;;0.75;0.47;;;;;;;23.66;36.06;98689.50;7394535;19;20010;-58
2024/04/26 09:24:37;;;;;;;0.40;0.40;;;;;;;24.07;36.37;98688.41;7394237;19;20018;-58
2024/04/26 09:27:05;;;;;;;0.55;0.55;;;;;;;24.64;36.14;98687.66;7394025;19;20051;-58
2024/04/26 09:29:34;;;;;;;0.30;0.30;;;;;;;24.97;35.57;98687.88;7397795;19;20006;-58
2024/04/26 09:32:13;;;;;;;0.88;0.50;;;;;;;24.69;35.15;98682.97;7394423;19;20010;-58
2024/04/26 09:34:40;;;;;;;0.20;0.20;;;;;;;24.51;34.87;98690.22;7391295;19;20007;-88
2024/04/26 09:37:09;;;;;;;0.35;0.30;;;;;;;24.58;34.99;98697.84;7390891;19;20022;-87
2024/04/26 09:39:37;;;;;;;0.30;0.30;;;;;;;24.41;34.53;98697.97;7389800;19;20455;-87
2024/04/26 09:42:06;;;;;;;2.67;0.73;;;;;;;24.14;35.24;98697.38;7394155;19;20026;-87
2024/04/26 09:44:33;;;;;;;0.20;0.20;;;;;;;24.29;35.06;98699.94;7391796;19;20046;-87
2024/04/26 09:47:01;;;;;;;0.43;0.43;;;;;;;23.96;34.42;98693.88;7391783;19;20018;-87
2024/04/26 09:49:28;;;;;;;0.28;0.20;;;;;;;23.91;34.41;98697.75;7391451;19;20079;-87
2024/04/26 09:51:57;;;;;;;4.88;0.57;;;;;;;23.82;34.38;98696.41;7390161;19;20010;-87
2024/04/26 09:54:23;;;;;;;0.32;0.32;;;;;;;23.69;34.92;98702.50;7396637;19;20030;-88
2024/04/26 09:56:50;;;;;;;0.77;0.50;;;;;;;23.78;35.42;98695.38;7389087;19;20022;-89
2024/04/26 09:59:16;;;;;;;0.43;0.30;;;;;;;23.82;34.57;98699.25;7393561;19;20022;-89
2024/04/26 10:01:42;;;;;;;2.40;0.52;;;;;;;23.98;34.84;98696.88;7391047;19;20022;-88
2024/04/26 10:04:09;;;;;;;1.52;0.40;;;;;;;24.05;34.55;98691.09;7389263;19;20010;-89
2024/04/26 10:06:42;;;;;;;0.63;0.50;;;;;;;23.86;34.79;98691.03;7391529;19;20026;-88
2024/04/26 10:09:16;;;;;;;0.50;0.30;;;;;;;23.79;34.36;98686.25;7392318;19;20022;-89
2024/04/26 10:11:49;;;;;;;0.55;0.50;;;;;;;23.86;34.24;98690.28;7391406;19;20461;-89
2024/04/26 10:14:29;;;;;;;0.38;0.38;;;;;;;24.54;34.21;98689.75;7387627;19;20015;-89
2024/04/26 10:17:12;;;;;;;1.60;0.40;;;;;;;24.31;33.97;98688.72;7393489;19;20014;-89
2024/04/26 10:19:42;;;;;;;0.80;0.63;;;;;;;24.18;34.02;98692.00;7392255;19;20026;-88
2024/04/26 10:22:10;;;;;;;0.43;0.43;;;;;;;24.23;33.70;98690.97;7392060;19;20046;-89
2024/04/26 10:24:37;;;;;;;3.85;0.65;;;;;;;24.03;34.04;98693.75;7391270;19;20070;-89
2024/04/26 10:27:04;;;;;;;8.32;0.80;;;;;;;23.70;33.81;98701.19;7390599;19;20528;-88
2024/04/26 10:29:30;;;;;;;0.22;0.22;;;;;;;23.61;34.14;98693.38;7391353;19;20035;-88
2024/04/26 10:32:11;;;;;;;0.40;0.40;;;;;;;23.45;34.15;98697.81;7390371;19;20477;-88
2024/04/26 10:34:39;;;;;;;0.77;0.45;;;;;;;23.49;34.23;98700.97;7390403;19;20025;-89
2024/04/26 10:37:15;;;;;;;4.63;0.47;;;;;;;23.45;34.72;98697.81;7388170;19;20014;-89
2024/04/26 10:39:42;;;;;;;0.47;0.35;;;;;;;23.37;34.32;98700.00;7392888;19;20010;-89
2024/04/26 10:42:09;;;;;;;3.35;0.82;;;;;;;23.35;34.65;98692.09;7390706;19;20457;-89
2024/04/26 10:44:37;;;;;;;1.35;0.80;;;;;;;23.50;34.60;98699.59;7390677;19;20015;-88
2024/04/26 10:47:03;;;;;;;0.15;0.15;;;;;;;23.67;34.60;98696.66;7390607;19;20022;-91
2024/04/26 10:49:30;;;;;;;0.30;0.30;;;;;;;23.82;33.81;98699.25;7389898;19;20026;-95
2024/04/26 10:52:02;;;;;;;4.47;0.75;;;;;;;23.89;33.93;98700.47;7392597;19;20035;-91
2024/04/26 10:54:31;;;;;;;0.20;0.20;;;;;;;24.05;33.83;98699.63;7390810;19;20054;-89
2024/04/26 10:56:57;;;;;;;2.70;0.95;;;;;;;24.03;33.62;98698.69;7389573;19;20025;-90
2024/04/26 10:59:25;;;;;;;1.10;0.70;;;;;;;24.16;33.73;98694.69;7389806;19;20035;-88
2024/04/26 11:02:01;;;;;;;0.85;0.73;;;;;;;24.27;33.80;98705.47;7389697;19;20014;-90
2024/04/26 11:04:33;;;;;;;5.03;0.65;;;;;;;24.40;33.93;98707.88;7393969;19;20023;-88
2024/04/26 11:07:17;;;;;;;0.20;0.20;;;;;;;24.48;33.31;98708.47;7388162;19;20018;-89
2024/04/26 11:09:48;;;;;;;0.22;0.22;;;;;;;24.57;33.15;98699.94;7389953;19;20014;-91
2024/04/26 11:12:17;;;;;;;0.28;0.28;;;;;;;24.89;33.14;98701.56;7390835;19;20014;-89
2024/04/26 11:14:43;;;;;;;0.47;0.40;;;;;;;24.62;32.75;98706.69;7388830;19;20048;-89
2024/04/26 11:17:10;;;;;;;0.50;0.50;;;;;;;24.59;32.82;98697.25;7391008;19;20030;-88
2024/04/26 11:19:37;;;;;;;0.20;0.20;;;;;;;24.86;33.11;98697.09;7390860;19;20018;-91
2024/04/26 11:22:04;;;;;;;0.22;0.22;;;;;;;24.92;33.08;98694.66;7389145;19;20022;-88
2024/04/26 11:24:32;;;;;;;0.20;0.20;;;;;;;25.07;32.42;98694.31;7388011;19;20023;-84
2024/04/26 11:27:01;;;;;;;0.20;0.20;;;;;;;25.38;32.12;98703.66;7387381;19;20086;-86
2024/04/26 11:29:27;;;;;;;0.25;0.25;;;;;;;25.34;31.80;98694.81;7387738;19;20019;-87
2024/04/26 11:31:53;;;;;;;0.63;0.28;;;;;;;25.58;32.49;98696.53;7389824;19;20342;-86